aviador You're here:

KTVR Decoded Metar

TALLULAH/VICKSBU in LA, USA
Report Time2017-07-26 21:53:00
UTC Time2017-07-26 22:40:35
Flight Rules vfr VFR
Wind180° at 04 kt
W.Decomp.*RWY 18: 4.0 kt HW 0.1 kt LCW
W.Rank180° ranks 2
Current wind is below 180° avg. (6.7)
Visibility9999 m
Phenomena:N/A
Clouds:N/A
Expected CloudBase > 4,000 ft AGL from Temp-Dew spread
CeilingNone
Temp33°C (ISA +18)
Dew Point23°C (56% RH)
Heat Index38.1°C
QNH1018 hPa
Density Alt2,356 ft
Elevation85 ft
Report Wrong Elevation
Raw Report
KTVR 262153Z AUTO 18004KT 10SM CLR 33/23 A3005 RMK AO2 SLP181
T03280228=

Extra information for KTVR:More info

Metar Taf Metar & Taf Last 4 Metars F.Rules Stats Wind Profile Meteogram Temp Stats Airport Information Weather charts Add Link Nearby VenuesMetar ALERT Operation Metar Decoded Social comments

AIRNAV info for KTVR